createdAt,value
2023-02-08T00:02:08.147Z,82.09
2023-02-08T00:07:09.733Z,81.23
2023-02-08T00:12:11.352Z,80.90
2023-02-08T00:17:12.982Z,81.28
2023-02-08T00:22:14.598Z,81.46
2023-02-08T00:27:16.431Z,80.97
2023-02-08T00:32:18.068Z,81.32
2023-02-08T00:37:19.735Z,81.15
2023-02-08T00:42:21.361Z,80.59
2023-02-08T00:47:23.492Z,80.15
2023-02-08T00:52:25.116Z,80.03
2023-02-08T00:57:26.823Z,80.25
2023-02-08T01:02:28.895Z,80.17
2023-02-08T01:07:30.511Z,79.95
2023-02-08T01:12:32.264Z,80.38
2023-02-08T01:17:34.309Z,79.68
2023-02-08T01:22:35.962Z,79.56
2023-02-08T01:27:37.598Z,80.00
2023-02-08T01:32:39.219Z,79.71
2023-02-08T01:37:40.952Z,79.90
2023-02-08T01:42:43.653Z,79.97
2023-02-08T01:47:47.662Z,80.10
2023-02-08T01:52:49.504Z,80.92
2023-02-08T01:57:54.865Z,80.34
2023-02-08T02:02:56.982Z,80.32
2023-02-08T02:07:58.890Z,80.88
2023-02-08T02:13:06.886Z,81.01
2023-02-08T02:18:08.884Z,80.16
2023-02-08T02:23:34.833Z,80.02
2023-02-08T02:28:40.208Z,80.12
2023-02-08T02:33:47.276Z,80.93
2023-02-08T02:39:07.490Z,80.14
2023-02-08T02:44:43.831Z,79.34
2023-02-08T02:50:01.397Z,79.34
2023-02-08T02:55:10.906Z,79.13
2023-02-08T03:00:19.945Z,79.13
2023-02-08T03:05:22.223Z,80.00
2023-02-08T03:10:36.092Z,80.22
2023-02-08T03:15:59.605Z,80.69
2023-02-08T03:21:20.031Z,79.89
2023-02-08T03:26:40.774Z,79.87
2023-02-08T03:31:46.876Z,80.30
2023-02-08T03:37:25.515Z,80.39
2023-02-08T03:42:28.905Z,81.04
2023-02-08T03:47:35.276Z,80.97
2023-02-08T03:52:37.895Z,80.65
2023-02-08T03:57:50.298Z,80.21
2023-02-08T04:02:56.790Z,80.43
2023-02-08T04:07:58.452Z,80.60
2023-02-08T04:13:00.110Z,80.11
2023-02-08T04:18:01.705Z,80.87
2023-02-08T04:23:03.337Z,80.50
2023-02-08T04:28:05.226Z,80.42
2023-02-08T04:33:06.849Z,79.82
2023-02-08T04:38:09.439Z,79.70
2023-02-08T04:43:11.040Z,79.66
2023-02-08T04:48:12.670Z,79.19
2023-02-08T04:53:14.306Z,79.53
2023-02-08T04:58:15.984Z,79.04
2023-02-08T05:03:17.633Z,79.81
2023-02-08T05:08:19.233Z,79.47
2023-02-08T05:13:20.843Z,80.06
2023-02-08T05:18:22.472Z,80.19
2023-02-08T05:23:24.548Z,79.78
2023-02-08T05:28:26.410Z,80.40
2023-02-08T05:33:28.313Z,80.17
2023-02-08T05:38:31.206Z,79.06
2023-02-08T05:43:32.828Z,79.68
2023-02-08T05:48:34.536Z,79.55
2023-02-08T05:53:36.865Z,79.98
2023-02-08T05:58:38.450Z,79.68
2023-02-08T06:03:40.970Z,79.38
2023-02-08T06:08:42.776Z,79.54
2023-02-08T06:13:44.429Z,79.30
2023-02-08T06:18:46.073Z,79.12
2023-02-08T06:23:47.659Z,79.93
2023-02-08T06:28:49.250Z,79.21
2023-02-08T06:33:50.837Z,78.69
2023-02-08T06:38:52.551Z,78.67
2023-02-08T06:43:54.144Z,78.23
2023-02-08T06:48:58.021Z,77.91
2023-02-08T06:53:59.608Z,77.63
2023-02-08T06:59:01.205Z,77.25
2023-02-08T07:04:02.829Z,77.02
2023-02-08T07:09:04.526Z,77.12
2023-02-08T07:14:06.196Z,77.77
2023-02-08T07:19:07.852Z,78.11
2023-02-08T07:24:09.436Z,77.68
2023-02-08T07:29:11.069Z,77.06
2023-02-08T07:34:12.721Z,76.23
2023-02-08T07:39:14.391Z,76.09
2023-02-08T07:44:16.058Z,75.43
2023-02-08T07:49:17.661Z,75.20
2023-02-08T07:54:19.252Z,75.07
2023-02-08T07:59:20.973Z,74.70
2023-02-08T08:04:22.672Z,74.45
2023-02-08T08:09:24.337Z,74.66
2023-02-08T08:14:25.970Z,74.43
2023-02-08T08:19:28.297Z,73.32
2023-02-08T08:24:31.743Z,72.90
2023-02-08T08:29:34.455Z,72.58
2023-02-08T08:34:36.117Z,72.04
2023-02-08T08:39:37.709Z,71.58
2023-02-08T08:44:39.918Z,71.65
2023-02-08T08:49:42.774Z,71.38
2023-02-08T08:54:44.385Z,71.29
2023-02-08T08:59:46.675Z,71.60
2023-02-08T09:04:48.316Z,71.29
2023-02-08T09:09:49.918Z,71.69
2023-02-08T09:14:51.551Z,71.17
2023-02-08T09:19:53.180Z,70.94
2023-02-08T09:24:54.853Z,71.08
2023-02-08T09:29:56.451Z,70.19
2023-02-08T09:34:58.165Z,69.45
2023-02-08T09:40:00.564Z,68.92
2023-02-08T09:45:11.724Z,68.95
2023-02-08T09:50:14.316Z,70.93
2023-02-08T09:55:22.215Z,69.27
2023-02-08T10:00:43.054Z,68.30
2023-02-08T10:05:44.881Z,68.48
2023-02-08T10:10:53.973Z,67.73
2023-02-08T10:21:02.779Z,67.43
2023-02-08T10:26:41.981Z,66.26
2023-02-08T10:32:02.788Z,66.10
2023-02-08T10:37:34.852Z,65.91
2023-02-08T10:42:36.565Z,66.16
2023-02-08T11:01:40.628Z,64.93
2023-02-08T11:06:43.683Z,65.01
2023-02-08T11:11:46.673Z,64.73
2023-02-08T11:16:56.848Z,66.45
2023-02-08T11:21:59.871Z,65.01
2023-02-08T11:27:02.937Z,65.03
2023-02-08T11:32:19.125Z,65.05
2023-02-08T11:37:28.385Z,64.69
2023-02-08T11:42:40.172Z,64.58
2023-02-08T11:47:47.033Z,64.29
2023-02-08T11:52:58.869Z,64.26
2023-02-08T11:58:09.604Z,64.18
2023-02-08T12:03:26.508Z,64.02
2023-02-08T12:08:36.720Z,63.13
2023-02-08T12:13:44.492Z,62.58
2023-02-08T12:19:01.271Z,62.25
2023-02-08T12:24:12.952Z,62.06
2023-02-08T12:29:45.730Z,62.15
2023-02-08T12:35:37.376Z,61.09
2023-02-08T12:40:55.242Z,61.43
2023-02-08T12:46:00.072Z,60.89
2023-02-08T12:51:27.609Z,61.68
2023-02-08T12:56:35.840Z,61.39
2023-02-08T13:01:42.975Z,61.33
2023-02-08T13:06:51.387Z,59.92
2023-02-08T13:12:17.750Z,59.80
2023-02-08T13:17:24.139Z,59.42
2023-02-08T13:22:26.015Z,60.02
2023-02-08T13:27:27.594Z,58.61
2023-02-08T13:32:42.782Z,58.43
2023-02-08T13:38:01.652Z,59.31
2023-02-08T13:43:20.891Z,59.00
2023-02-08T13:48:27.657Z,60.78
2023-02-08T13:53:38.462Z,59.16
2023-02-08T13:58:42.688Z,59.50
2023-02-08T14:03:44.727Z,60.02
2023-02-08T14:09:06.454Z,59.26
2023-02-08T14:14:21.472Z,59.47
2023-02-08T14:19:23.983Z,59.15
2023-02-08T14:24:36.169Z,60.42
2023-02-08T14:29:38.119Z,59.22
2023-02-08T14:34:40.314Z,59.94
2023-02-08T14:39:41.924Z,58.88
2023-02-08T14:44:48.037Z,58.91
2023-02-08T14:49:51.549Z,59.80
2023-02-08T14:55:03.578Z,59.30
2023-02-08T15:00:27.102Z,59.40
2023-02-08T15:05:30.622Z,59.11
2023-02-08T15:10:33.298Z,60.26
2023-02-08T15:15:39.980Z,60.19
2023-02-08T15:20:43.703Z,61.16
2023-02-08T15:25:55.858Z,60.80
2023-02-08T15:31:03.479Z,61.44
2023-02-08T15:36:15.478Z,60.34
2023-02-08T15:41:31.604Z,61.53
2023-02-08T15:46:34.568Z,62.29
2023-02-08T15:51:36.157Z,61.65
2023-02-08T15:56:42.439Z,64.53
2023-02-08T16:01:47.544Z,64.75
2023-02-08T16:06:54.922Z,65.09
2023-02-08T16:11:58.680Z,63.48
2023-02-08T16:17:00.293Z,64.23
2023-02-08T16:22:25.754Z,65.04
2023-02-08T16:27:31.466Z,66.42
2023-02-08T16:32:35.975Z,64.57
2023-02-08T16:37:37.749Z,66.51
2023-02-08T16:42:44.175Z,65.94
2023-02-08T16:47:50.237Z,67.02
2023-02-08T16:53:11.425Z,68.20
2023-02-08T16:58:14.954Z,68.76
2023-02-08T17:03:16.723Z,66.84
2023-02-08T17:08:21.331Z,68.15
2023-02-08T17:13:24.378Z,68.09
2023-02-08T17:18:26.050Z,67.62
2023-02-08T17:23:27.787Z,67.18
2023-02-08T17:28:29.494Z,66.64
2023-02-08T17:33:33.205Z,68.63
2023-02-08T17:38:38.963Z,67.14
2023-02-08T17:43:40.576Z,67.74
2023-02-08T17:48:42.546Z,67.34
2023-02-08T17:53:44.689Z,67.57
2023-02-08T17:58:49.055Z,66.80
2023-02-08T18:03:53.934Z,66.53
2023-02-08T18:08:55.813Z,66.71
2023-02-08T18:13:57.360Z,66.93
2023-02-08T18:19:01.163Z,67.85
2023-02-08T18:24:06.774Z,68.36
2023-02-08T18:29:10.219Z,68.93
2023-02-08T18:34:11.805Z,68.45
2023-02-08T18:39:22.888Z,67.49
2023-02-08T18:44:24.571Z,67.38
2023-02-08T18:49:26.185Z,67.61
2023-02-08T18:54:28.077Z,68.37
2023-02-08T18:59:29.834Z,67.14
2023-02-08T19:04:31.401Z,67.38
2023-02-08T19:09:36.728Z,66.98
2023-02-08T19:14:38.324Z,66.60
2023-02-08T19:19:39.897Z,67.78
2023-02-08T19:24:41.448Z,68.08
2023-02-08T19:29:43.458Z,68.17
2023-02-08T19:34:45.028Z,67.07
2023-02-08T19:39:46.665Z,67.46
2023-02-08T19:44:48.272Z,67.77
2023-02-08T19:49:49.873Z,68.04
2023-02-08T19:54:52.791Z,68.80
2023-02-08T19:59:54.493Z,70.75
2023-02-08T20:04:56.143Z,71.24
2023-02-08T20:09:57.748Z,70.61
2023-02-08T20:14:59.286Z,71.64
2023-02-08T20:20:00.844Z,71.13
2023-02-08T20:25:04.028Z,70.43
2023-02-08T20:30:06.096Z,69.32
2023-02-08T20:35:07.969Z,68.99
2023-02-08T20:40:11.356Z,69.46
2023-02-08T20:45:15.058Z,68.73
2023-02-08T20:50:19.495Z,69.18
2023-02-08T20:55:21.894Z,70.08
2023-02-08T21:00:27.964Z,68.38
2023-02-08T21:05:35.092Z,69.16
2023-02-08T21:10:37.233Z,70.42
2023-02-08T21:15:44.679Z,70.31
2023-02-08T21:20:46.689Z,68.15
2023-02-08T21:25:48.482Z,67.81
2023-02-08T21:31:05.697Z,67.30
2023-02-08T21:36:10.437Z,67.53
2023-02-08T21:41:20.487Z,66.51
2023-02-08T21:46:24.519Z,66.04
2023-02-08T21:51:45.008Z,64.96
2023-02-08T21:56:46.557Z,63.88
2023-02-08T22:01:48.215Z,63.31
2023-02-08T22:06:49.883Z,62.73
2023-02-08T22:11:51.475Z,63.77
2023-02-08T22:16:53.093Z,63.40
2023-02-08T22:21:54.684Z,63.66
2023-02-08T22:26:56.257Z,63.54
2023-02-08T22:31:58.058Z,62.75
2023-02-08T22:37:03.637Z,64.36
2023-02-08T22:42:08.814Z,63.36
2023-02-08T22:47:12.704Z,62.47
2023-02-08T22:52:14.949Z,62.59
2023-02-08T22:57:16.537Z,62.23
2023-02-08T23:02:18.143Z,64.02
2023-02-08T23:07:20.000Z,62.09
2023-02-08T23:12:21.664Z,63.18
2023-02-08T23:17:23.301Z,61.82
2023-02-08T23:22:24.945Z,62.89
2023-02-08T23:27:26.506Z,62.84
2023-02-08T23:32:28.081Z,64.04
2023-02-08T23:37:30.000Z,62.95
2023-02-08T23:42:31.638Z,62.90
2023-02-08T23:47:33.324Z,62.41
2023-02-08T23:52:35.938Z,63.88
2023-02-08T23:57:37.894Z,62.78
